Pagina principale
METAR-TAF:

METAR-TAF

Aeroporti :

Aeroporto di Perth

Perth, Australia

latitudine: 31-56S, longitudine: 115-57E, altezza: 20 m

Osservazione

Il bollettino è stato emesso 29 minuti fa, alle 08:00 UTC
Vento 8 kt da nord-est
Temperature 18°C
Umidità 39%
Pressione 1024 hPa
Visibilità 10 km o più
nessuna nube inferiore a 1500 m e nessun cumulonembo

METAR: YPPH 180800Z 05008KT CAVOK 18/04 Q1024 NOSIG

Ora: 16:29 (08:29 UTC)

Previsione

Il bollettino è stato emesso 3 ore e 19 minuti fa, alle 05:10 UTC
Previsione valida dal 18 alle 06 UTC al 19 alle 12 UTC
Vento 10 kt da est/nord-est
Visibilità 10 km o più
nessuna nube inferiore a 1500 m e nessun cumulonembo

TAF: YPPH 180510Z 1806/1912 06010KT CAVOK

Osservazioni e previsioni meteorologiche di più di 4000 aeroporti (messaggi METAR e TAF).

Le stazioni disponibili sono rappresentate dai dischi gialli e rossi sulla carta.

Puntare il mouse per vedere il nome della stazione.

Clicca sopra per visualizzare le osservazioni e previsioni meteorologiche.

Per cambiare la mappa : fare clic sui pulsanti verdi con una croce nera per ingrandire, il pulsante verde con un trattino per diminuire, o sulla freccia verde per le mappe adiacenti.


METAR-TAF: